Time;durP1;ratioP1;P1;durP2;ratioP2;P2;SDS_P1;SDS_P2;PMS_P1;PMS_P2;Temp;Humidity;BMP_temperature;BMP_pressure;BME280_temperature;BME280_humidity;BME280_pressure;Samples;Min_cycle;Max_cycle;Signal;HPM_P1;HPM_P2
2023/06/06 00:01:49;;;;;;;5.55;4.80;;;;;;;16.11;90.61;96456.03;5035130;28;20203;-57
2023/06/06 00:04:15;;;;;;;6.50;4.75;;;;;;;16.03;89.88;96448.09;5035826;28;20226;-56
2023/06/06 00:06:44;;;;;;;5.00;4.57;;;;;;;16.02;90.65;96463.28;5035634;28;20291;-57
2023/06/06 00:09:10;;;;;;;5.17;4.70;;;;;;;16.02;91.45;96462.44;5035470;28;20722;-56
2023/06/06 00:11:39;;;;;;;5.28;4.45;;;;;;;15.97;92.00;96467.50;5033871;28;20232;-56
2023/06/06 00:14:07;;;;;;;5.93;4.88;;;;;;;15.95;91.41;96465.00;5036082;28;20338;-58
2023/06/06 00:16:34;;;;;;;5.75;5.18;;;;;;;15.97;90.78;96464.84;5032106;28;20204;-56
2023/06/06 00:19:00;;;;;;;5.23;4.83;;;;;;;15.89;92.60;96469.25;5038516;28;20529;-56
2023/06/06 00:21:27;;;;;;;5.32;4.82;;;;;;;15.86;92.51;96469.59;5038725;28;20247;-56
2023/06/06 00:23:56;;;;;;;5.10;4.70;;;;;;;15.86;92.81;96469.59;5019837;28;20211;-55
2023/06/06 00:26:22;;;;;;;5.25;4.78;;;;;;;15.83;93.69;96472.63;5035363;28;20646;-57
2023/06/06 00:28:49;;;;;;;5.75;5.13;;;;;;;15.81;93.28;96476.47;5034112;28;20211;-56
2023/06/06 00:31:16;;;;;;;5.23;4.83;;;;;;;15.75;94.40;96475.34;5031678;28;20218;-57
2023/06/06 00:33:43;;;;;;;5.80;5.20;;;;;;;15.68;95.78;96471.75;5035163;28;20215;-56
2023/06/06 00:36:12;;;;;;;5.38;4.97;;;;;;;15.65;95.83;96472.13;5035268;28;20548;-56
2023/06/06 00:38:39;;;;;;;5.77;5.07;;;;;;;15.69;96.03;96473.41;5035162;28;20705;-56
2023/06/06 00:41:05;;;;;;;5.10;4.53;;;;;;;15.59;97.00;96472.81;5020283;28;20214;-56
2023/06/06 00:43:32;;;;;;;6.40;5.10;;;;;;;15.59;97.48;96467.47;5031765;28;20674;-56
2023/06/06 00:45:58;;;;;;;5.80;5.33;;;;;;;15.63;98.15;96468.78;5034782;28;20208;-57
2023/06/06 00:48:26;;;;;;;5.53;4.93;;;;;;;15.66;97.46;96468.41;5031263;28;20208;-56
2023/06/06 00:50:54;;;;;;;5.50;5.10;;;;;;;15.61;98.06;96473.47;5033267;28;20216;-55
2023/06/06 00:53:21;;;;;;;5.87;5.27;;;;;;;15.60;99.12;96476.31;5034188;28;20544;-57
2023/06/06 00:55:47;;;;;;;6.00;5.40;;;;;;;15.63;100.00;96476.78;5034356;28;20231;-57
2023/06/06 00:58:15;;;;;;;5.67;5.17;;;;;;;15.67;100.00;96469.25;5035079;28;20525;-55
2023/06/06 01:00:42;;;;;;;5.83;5.40;;;;;;;15.63;100.00;96471.44;5034265;28;20323;-55
2023/06/06 01:03:10;;;;;;;7.03;5.80;;;;;;;15.62;100.00;96472.47;5035137;28;20241;-56
2023/06/06 01:05:38;;;;;;;6.60;5.77;;;;;;;15.65;100.00;96466.78;5034871;28;20676;-56
2023/06/06 01:08:05;;;;;;;5.67;5.17;;;;;;;15.69;100.00;96472.59;5034414;28;20636;-56
2023/06/06 01:10:34;;;;;;;5.90;5.50;;;;;;;15.71;100.00;96475.88;5034662;28;20246;-56
2023/06/06 01:13:05;;;;;;;5.87;5.30;;;;;;;15.68;100.00;96481.56;5034466;28;20243;-56
2023/06/06 01:15:36;;;;;;;6.10;5.60;;;;;;;15.62;100.00;96485.81;5034709;28;20204;-56
2023/06/06 01:18:04;;;;;;;6.20;5.70;;;;;;;15.54;100.00;96485.84;5026760;28;20196;-57
2023/06/06 01:20:31;;;;;;;6.03;5.53;;;;;;;15.49;100.00;96493.53;5030472;28;20224;-57
2023/06/06 01:22:59;;;;;;;7.00;5.90;;;;;;;15.53;100.00;96486.84;5055782;28;20210;-57
2023/06/06 01:25:26;;;;;;;6.33;5.73;;;;;;;15.52;100.00;96487.03;5040600;28;20216;-56
2023/06/06 01:27:55;;;;;;;6.30;5.70;;;;;;;15.54;100.00;96501.00;5034526;28;20589;-56
2023/06/06 01:30:24;;;;;;;6.30;5.70;;;;;;;15.53;100.00;96497.50;5034098;28;20204;-56
2023/06/06 01:33:02;;;;;;;6.07;5.57;;;;;;;15.46;100.00;96493.84;5034203;28;20628;-56
2023/06/06 01:35:34;;;;;;;6.50;5.90;;;;;;;15.49;100.00;96498.88;5034633;28;20203;-56
2023/06/06 01:38:07;;;;;;;7.43;6.78;;;;;;;15.48;100.00;96494.50;5034573;28;20212;-56
2023/06/06 01:40:34;;;;;;;6.22;5.68;;;;;;;15.43;100.00;96489.72;5034561;28;20208;-56
2023/06/06 01:43:02;;;;;;;6.47;5.87;;;;;;;15.35;100.00;96497.75;5025000;28;20634;-56
2023/06/06 01:45:30;;;;;;;6.65;6.00;;;;;;;15.31;100.00;96500.94;5035291;28;20208;-56
2023/06/06 01:47:57;;;;;;;6.63;5.70;;;;;;;15.35;100.00;96496.94;5034233;28;20539;-56
2023/06/06 01:50:24;;;;;;;6.40;5.80;;;;;;;15.43;100.00;96510.22;5034097;28;20299;-55
2023/06/06 01:52:53;;;;;;;6.20;5.70;;;;;;;15.45;100.00;96494.84;5035716;28;20208;-56
2023/06/06 01:55:20;;;;;;;6.40;5.90;;;;;;;15.50;100.00;96495.19;5032076;28;20196;-56
2023/06/06 01:57:47;;;;;;;6.50;5.90;;;;;;;15.47;100.00;96495.53;5037794;28;20287;-57
2023/06/06 02:00:15;;;;;;;6.63;6.00;;;;;;;15.34;100.00;96505.91;5038710;28;20232;-57
2023/06/06 02:02:42;;;;;;;7.00;5.67;;;;;;;15.35;100.00;96502.25;5040211;28;20532;-56
2023/06/06 02:05:09;;;;;;;7.90;5.43;;;;;;;15.29;100.00;96497.63;5039562;28;20203;-57
2023/06/06 02:07:37;;;;;;;6.07;5.47;;;;;;;15.27;100.00;96504.97;5039458;28;20501;-57
2023/06/06 02:10:06;;;;;;;7.00;6.30;;;;;;;15.18;98.31;96503.34;5037408;28;20207;-56
2023/06/06 02:12:34;;;;;;;6.50;5.90;;;;;;;15.07;100.00;96511.72;5037555;28;20239;-57
2023/06/06 02:15:02;;;;;;;6.77;5.80;;;;;;;15.07;100.00;96514.41;5037430;28;20211;-57
2023/06/06 02:17:29;;;;;;;6.57;5.97;;;;;;;15.06;100.00;96513.56;5034628;28;20207;-56
2023/06/06 02:19:55;;;;;;;6.73;6.10;;;;;;;15.05;100.00;96517.25;5037530;28;20690;-57
2023/06/06 02:22:22;;;;;;;6.60;6.00;;;;;;;15.01;100.00;96515.09;5037339;28;20204;-56
2023/06/06 02:24:52;;;;;;;6.40;5.83;;;;;;;15.19;100.00;96523.66;5037666;28;20217;-56
2023/06/06 02:27:19;;;;;;;7.00;6.40;;;;;;;15.11;100.00;96518.38;5037541;28;20262;-56
2023/06/06 02:29:47;;;;;;;5.80;5.30;;;;;;;15.01;100.00;96518.59;5037462;28;20204;-58
2023/06/06 02:32:13;;;;;;;6.97;6.27;;;;;;;14.93;100.00;96513.31;5036209;28;20208;-55
2023/06/06 02:34:40;;;;;;;6.50;5.90;;;;;;;14.90;100.00;96510.97;5037437;28;20223;-56
2023/06/06 02:37:06;;;;;;;6.93;6.23;;;;;;;14.88;100.00;96513.81;5037332;28;20266;-57
2023/06/06 02:39:33;;;;;;;6.53;6.00;;;;;;;14.88;100.00;96520.97;5032128;28;20220;-55
2023/06/06 02:42:02;;;;;;;6.50;5.93;;;;;;;14.90;100.00;96519.81;5029405;28;20273;-57
2023/06/06 02:44:28;;;;;;;6.30;5.70;;;;;;;14.92;100.00;96523.13;5037276;28;20212;-56
2023/06/06 02:46:57;;;;;;;7.47;6.03;;;;;;;14.88;100.00;96520.97;5036909;28;20212;-56
2023/06/06 02:49:23;;;;;;;7.93;5.73;;;;;;;14.86;100.00;96520.31;5031004;28;20262;-56
2023/06/06 02:51:52;;;;;;;6.40;5.80;;;;;;;14.89;100.00;96527.94;5029942;28;20200;-56
2023/06/06 02:54:19;;;;;;;7.17;6.57;;;;;;;14.86;100.00;96529.13;5036264;28;20207;-55
2023/06/06 02:56:45;;;;;;;6.50;5.93;;;;;;;14.76;100.00;96523.19;5037060;28;20535;-57
2023/06/06 02:59:11;;;;;;;6.73;6.07;;;;;;;14.72;100.00;96521.03;5036625;28;20659;-55
2023/06/06 03:01:42;;;;;;;6.53;5.93;;;;;;;14.71;100.00;96519.38;5036771;28;20215;-56
2023/06/06 03:04:11;;;;;;;6.60;6.00;;;;;;;14.72;100.00;96519.22;5024265;28;20204;-56
2023/06/06 03:06:40;;;;;;;6.93;6.20;;;;;;;14.73;100.00;96520.88;5034521;28;20533;-55
2023/06/06 03:09:07;;;;;;;6.80;6.20;;;;;;;14.60;100.00;96517.91;5052217;28;20211;-56
2023/06/06 03:11:34;;;;;;;6.80;6.20;;;;;;;14.65;100.00;96525.38;5050875;28;20742;-55
2023/06/06 03:14:01;;;;;;;7.80;6.23;;;;;;;14.53;100.00;96522.25;5036718;28;20207;-56
2023/06/06 03:16:28;;;;;;;6.80;6.20;;;;;;;14.50;100.00;96533.22;5036283;28;20200;-55
2023/06/06 03:18:54;;;;;;;6.60;6.03;;;;;;;14.52;100.00;96535.75;5036680;28;20200;-56
2023/06/06 03:21:22;;;;;;;6.40;5.80;;;;;;;14.54;100.00;96539.03;5036837;28;20242;-54
2023/06/06 03:23:50;;;;;;;6.87;6.27;;;;;;;14.51;100.00;96540.22;5039929;28;20211;-56
2023/06/06 03:26:19;;;;;;;6.33;5.73;;;;;;;14.53;100.00;96542.69;5054401;28;20196;-59
2023/06/06 03:28:45;;;;;;;6.40;5.90;;;;;;;14.51;100.00;96547.38;5053120;28;20247;-57
2023/06/06 03:31:12;;;;;;;6.87;6.33;;;;;;;14.48;100.00;96545.88;5037798;28;20643;-56
2023/06/06 03:33:38;;;;;;;7.03;6.33;;;;;;;14.54;100.00;96547.03;5036394;28;20235;-57
2023/06/06 03:36:07;;;;;;;5.87;5.40;;;;;;;14.52;100.00;96557.84;5035508;28;20568;-56
2023/06/06 03:38:35;;;;;;;6.37;5.87;;;;;;;14.48;100.00;96553.03;5035890;28;20215;-56
2023/06/06 03:41:02;;;;;;;6.93;6.23;;;;;;;14.46;100.00;96550.53;5021855;28;20664;-56
2023/06/06 03:43:30;;;;;;;7.57;6.83;;;;;;;14.38;100.00;96545.25;5034876;28;20238;-57
2023/06/06 03:45:57;;;;;;;6.83;6.13;;;;;;;14.39;100.00;96542.41;5035167;28;20239;-55
2023/06/06 03:48:23;;;;;;;7.00;6.30;;;;;;;14.39;100.00;96546.88;5036232;28;20207;-56
2023/06/06 03:50:50;;;;;;;9.30;8.10;;;;;;;14.26;100.00;96551.88;5035388;28;20219;-56
2023/06/06 03:53:16;;;;;;;9.23;7.60;;;;;;;14.29;100.00;96557.69;5036184;28;20212;-56
2023/06/06 03:55:46;;;;;;;7.47;5.97;;;;;;;14.30;100.00;96556.69;5035556;28;20218;-54
2023/06/06 03:58:13;;;;;;;6.80;6.20;;;;;;;14.38;100.00;96555.88;5035526;28;20203;-56
2023/06/06 04:00:40;;;;;;;7.10;6.07;;;;;;;14.45;100.00;96556.88;5034492;28;20607;-56
2023/06/06 04:03:06;;;;;;;7.30;6.60;;;;;;;14.51;100.00;96556.19;5035807;28;20588;-56
2023/06/06 04:05:33;;;;;;;7.43;6.77;;;;;;;14.53;100.00;96559.50;5035226;28;20214;-55
2023/06/06 04:08:00;;;;;;;6.50;5.90;;;;;;;14.58;100.00;96551.84;5035444;28;20659;-55
2023/06/06 04:10:26;;;;;;;6.57;5.90;;;;;;;14.67;100.00;96563.28;5034905;28;20687;-55
2023/06/06 04:12:54;;;;;;;6.77;6.20;;;;;;;14.69;100.00;96563.97;5035197;28;20239;-55
2023/06/06 04:15:22;;;;;;;6.70;5.93;;;;;;;14.70;100.00;96563.78;5034137;28;20200;-56
2023/06/06 04:17:49;;;;;;;6.73;6.13;;;;;;;14.77;100.00;96562.09;5026483;28;20204;-57
2023/06/06 04:20:15;;;;;;;6.50;5.63;;;;;;;14.88;100.00;96564.41;5034481;28;20575;-55
2023/06/06 04:22:43;;;;;;;8.10;5.70;;;;;;;14.89;100.00;96566.06;5034110;28;20211;-55
2023/06/06 04:25:12;;;;;;;7.17;5.63;;;;;;;14.92;100.00;96557.72;5035439;28;20261;-56
2023/06/06 04:27:40;;;;;;;6.23;5.70;;;;;;;14.98;100.00;96558.06;5035218;28;20208;-56
2023/06/06 04:30:12;;;;;;;6.87;6.17;;;;;;;15.03;100.00;96571.66;5034450;28;20509;-57
2023/06/06 04:32:39;;;;;;;6.53;5.80;;;;;;;15.04;100.00;96570.69;5035378;28;20206;-57
2023/06/06 04:35:07;;;;;;;6.93;6.10;;;;;;;15.17;100.00;96570.94;5038220;28;20543;-57
2023/06/06 04:37:33;;;;;;;7.00;6.37;;;;;;;15.21;100.00;96570.44;5037171;28;20291;-56
2023/06/06 04:40:00;;;;;;;7.50;6.57;;;;;;;15.34;100.00;96575.19;5029510;28;20236;-57
2023/06/06 04:42:32;;;;;;;7.03;6.43;;;;;;;15.52;100.00;96577.66;5033195;28;20258;-58
2023/06/06 04:44:59;;;;;;;6.82;6.22;;;;;;;15.67;100.00;96584.72;5037549;28;20188;-58
2023/06/06 04:47:28;;;;;;;6.60;6.00;;;;;;;15.81;100.00;96583.97;5037096;28;20242;-57
2023/06/06 04:49:54;;;;;;;7.15;6.45;;;;;;;15.93;100.00;96581.72;5036783;28;20210;-59
2023/06/06 04:52:22;;;;;;;7.20;6.50;;;;;;;15.92;100.00;96588.88;5037112;28;20265;-58
2023/06/06 04:54:48;;;;;;;6.57;5.97;;;;;;;15.98;100.00;96579.34;5036984;28;20257;-57
2023/06/06 04:57:16;;;;;;;6.57;5.95;;;;;;;16.10;100.00;96587.75;5037272;28;20219;-62
2023/06/06 04:59:50;;;;;;;5.90;5.30;;;;;;;16.25;100.00;96586.81;5036370;28;20212;-58
2023/06/06 05:02:20;;;;;;;7.05;6.07;;;;;;;16.35;100.00;96587.38;5035039;28;20620;-57
2023/06/06 05:04:48;;;;;;;8.50;6.50;;;;;;;16.42;98.97;96585.66;5034687;28;20196;-58
2023/06/06 05:07:15;;;;;;;7.53;6.03;;;;;;;16.56;98.36;96586.72;5034925;28;20256;-58
2023/06/06 05:09:41;;;;;;;6.70;6.05;;;;;;;16.74;97.81;96581.88;5034671;28;20207;-58
2023/06/06 05:12:09;;;;;;;7.35;6.65;;;;;;;16.76;94.07;96587.84;5034390;28;20292;-58
2023/06/06 05:14:35;;;;;;;7.75;6.50;;;;;;;17.05;93.45;96591.53;5034909;28;20211;-58
2023/06/06 05:17:01;;;;;;;6.20;5.63;;;;;;;17.22;91.62;96590.34;5034210;28;20273;-61
2023/06/06 05:19:28;;;;;;;6.80;6.13;;;;;;;17.38;91.21;96590.16;5034589;28;20215;-58
2023/06/06 05:21:56;;;;;;;8.05;6.78;;;;;;;17.51;89.06;96595.66;5034660;28;20682;-57
2023/06/06 05:24:23;;;;;;;6.22;5.70;;;;;;;17.68;87.66;96586.44;5034079;28;20676;-58
2023/06/06 05:26:49;;;;;;;6.10;5.50;;;;;;;17.84;86.58;96588.88;5034485;28;20529;-58
2023/06/06 05:29:16;;;;;;;7.20;6.53;;;;;;;17.95;84.42;96592.09;5041870;28;20261;-58
2023/06/06 05:31:42;;;;;;;7.07;6.47;;;;;;;18.14;83.79;96586.91;5042921;28;20214;-58
2023/06/06 05:34:09;;;;;;;6.90;6.20;;;;;;;18.21;82.62;96592.34;5042380;28;20218;-58
2023/06/06 05:36:36;;;;;;;6.50;6.00;;;;;;;18.45;82.75;96591.13;5043410;28;20203;-59
2023/06/06 05:39:03;;;;;;;6.90;6.20;;;;;;;18.59;82.90;96596.44;5038192;28;20215;-58
2023/06/06 05:41:30;;;;;;;8.23;5.93;;;;;;;18.62;80.90;96609.44;5025576;28;20235;-57
2023/06/06 05:43:57;;;;;;;7.25;6.65;;;;;;;18.59;79.88;96599.09;5037775;28;20207;-57
2023/06/06 05:46:23;;;;;;;6.30;5.80;;;;;;;18.81;79.72;96606.06;5037506;28;20552;-57
2023/06/06 05:48:51;;;;;;;8.63;6.70;;;;;;;18.58;79.43;96596.59;5037540;28;20222;-56
2023/06/06 05:51:17;;;;;;;10.05;6.72;;;;;;;18.89;78.90;96602.41;5037707;28;20290;-57
2023/06/06 05:53:45;;;;;;;6.90;6.30;;;;;;;19.13;78.90;96601.13;5034434;28;20780;-57
2023/06/06 05:56:13;;;;;;;7.03;6.43;;;;;;;19.30;78.04;96600.63;5037661;28;20277;-58
2023/06/06 05:58:40;;;;;;;7.75;6.47;;;;;;;19.55;77.00;96600.16;5037643;28;20307;-57
2023/06/06 06:01:08;;;;;;;6.28;5.70;;;;;;;19.73;75.66;96595.06;5037515;28;20285;-58
2023/06/06 06:03:35;;;;;;;6.18;5.65;;;;;;;19.91;75.70;96597.97;5037306;28;20208;-57
2023/06/06 06:06:04;;;;;;;6.03;5.53;;;;;;;20.07;75.60;96596.78;5037231;28;20207;-58
2023/06/06 06:08:32;;;;;;;6.57;5.90;;;;;;;20.24;74.24;96606.13;5037487;28;20208;-57
2023/06/06 06:10:58;;;;;;;8.57;5.97;;;;;;;20.41;73.56;96598.53;5037041;28;20678;-57
2023/06/06 06:13:26;;;;;;;6.63;5.93;;;;;;;20.43;72.18;96597.31;5033675;28;20196;-58
2023/06/06 06:15:53;;;;;;;7.53;6.65;;;;;;;20.53;71.70;96597.72;5035935;28;20208;-57
2023/06/06 06:18:19;;;;;;;6.78;6.05;;;;;;;20.71;71.95;96605.16;5036058;28;20204;-58
2023/06/06 06:20:46;;;;;;;7.57;6.40;;;;;;;20.77;71.13;96605.16;5036429;28;20241;-57
2023/06/06 06:23:13;;;;;;;6.60;6.00;;;;;;;20.95;71.37;96598.31;5037597;28;20200;-58
2023/06/06 06:25:39;;;;;;;6.53;5.90;;;;;;;21.07;72.64;96608.25;5037930;28;20208;-57
2023/06/06 06:28:06;;;;;;;6.55;5.95;;;;;;;21.27;71.79;96601.00;5038115;28;20219;-58
2023/06/06 06:30:34;;;;;;;7.43;6.40;;;;;;;21.38;71.42;96601.38;5039276;28;20211;-58
2023/06/06 06:33:00;;;;;;;7.43;6.72;;;;;;;21.54;69.44;96606.31;5036841;28;20214;-58
2023/06/06 06:35:27;;;;;;;6.75;6.15;;;;;;;21.64;69.26;96610.19;5036575;28;20216;-58
2023/06/06 06:37:53;;;;;;;8.82;6.20;;;;;;;21.65;67.20;96614.50;5036161;28;20596;-58
2023/06/06 06:40:19;;;;;;;6.80;6.13;;;;;;;21.75;68.12;96614.09;5036550;28;20203;-60
2023/06/06 06:42:46;;;;;;;7.22;6.63;;;;;;;21.77;68.18;96607.44;5036302;28;20230;-58
2023/06/06 06:45:13;;;;;;;6.85;6.13;;;;;;;21.98;66.34;96616.28;5035853;28;20644;-58
2023/06/06 06:47:43;;;;;;;6.70;6.10;;;;;;;21.70;65.54;96609.34;5036143;28;20219;-58
2023/06/06 06:50:11;;;;;;;7.85;6.50;;;;;;;21.70;66.11;96621.97;5036117;28;20215;-58
2023/06/06 06:52:37;;;;;;;12.82;6.80;;;;;;;22.13;67.01;96617.66;5036488;28;20710;-58
2023/06/06 06:55:05;;;;;;;7.63;6.35;;;;;;;22.11;65.64;96618.88;5046237;28;20220;-57
2023/06/06 06:57:36;;;;;;;7.22;6.03;;;;;;;22.20;66.97;96620.31;5034841;28;20212;-58
2023/06/06 07:00:11;;;;;;;6.40;5.80;;;;;;;22.55;65.14;96618.00;5035319;28;20235;-58
2023/06/06 07:02:39;;;;;;;5.82;5.43;;;;;;;22.57;64.03;96619.44;5022876;28;20251;-59
2023/06/06 07:05:09;;;;;;;6.55;5.70;;;;;;;22.86;65.75;96622.56;5035417;28;20208;-57
2023/06/06 07:07:43;;;;;;;9.18;6.45;;;;;;;22.64;63.44;96616.69;5036155;28;20208;-59
2023/06/06 07:10:10;;;;;;;5.72;5.20;;;;;;;22.89;62.70;96624.81;5042093;28;20199;-59
2023/06/06 07:12:37;;;;;;;7.32;5.03;;;;;;;23.07;63.50;96624.84;5015864;28;1054671;-58
2023/06/06 07:15:05;;;;;;;5.97;5.45;;;;;;;23.22;62.59;96625.34;5048322;28;20547;-59
2023/06/06 07:17:32;;;;;;;7.03;6.18;;;;;;;23.12;63.09;96625.03;5026845;28;20294;-57
2023/06/06 07:19:58;;;;;;;5.60;5.25;;;;;;;23.20;60.32;96611.25;5036180;28;20204;-58
2023/06/06 07:22:26;;;;;;;6.05;5.55;;;;;;;23.26;60.75;96615.75;5036197;28;20227;-57
2023/06/06 07:24:52;;;;;;;5.75;5.25;;;;;;;23.37;62.11;96625.81;5036038;28;20208;-58
2023/06/06 07:27:19;;;;;;;5.95;5.45;;;;;;;23.33;60.92;96611.13;5036295;28;20222;-58
2023/06/06 07:29:45;;;;;;;6.10;5.50;;;;;;;23.82;61.06;96618.28;5036172;28;20207;-58
2023/06/06 07:32:12;;;;;;;5.68;5.28;;;;;;;24.10;60.55;96615.81;5035892;28;20210;-57
2023/06/06 07:34:38;;;;;;;5.55;5.05;;;;;;;24.15;61.31;96612.47;5035987;28;20261;-58
2023/06/06 07:37:06;;;;;;;5.80;5.30;;;;;;;24.04;58.56;96615.91;5036000;28;20200;-58
2023/06/06 07:39:34;;;;;;;5.63;5.22;;;;;;;24.24;60.33;96617.31;5036147;28;20207;-58
2023/06/06 07:42:00;;;;;;;6.90;6.30;;;;;;;24.07;58.95;96610.06;5035866;28;20227;-56
2023/06/06 07:44:27;;;;;;;6.68;6.10;;;;;;;24.30;58.62;96621.00;5035631;28;20230;-58
2023/06/06 07:46:55;;;;;;;7.60;5.50;;;;;;;24.39;60.60;96618.78;5035217;28;20215;-57
2023/06/06 07:49:21;;;;;;;5.65;5.15;;;;;;;24.32;60.38;96612.66;5035614;28;20218;-58
2023/06/06 07:51:48;;;;;;;5.97;5.57;;;;;;;24.68;57.93;96618.75;5035166;28;20214;-58
2023/06/06 07:54:14;;;;;;;5.70;5.20;;;;;;;24.52;54.97;96614.00;5035699;28;20222;-58
2023/06/06 07:56:45;;;;;;;5.53;5.05;;;;;;;24.52;57.21;96613.19;5035587;28;20234;-57
2023/06/06 07:59:13;;;;;;;6.72;6.13;;;;;;;24.41;55.59;96612.09;5035528;28;20200;-59
2023/06/06 08:01:40;;;;;;;6.07;5.60;;;;;;;24.56;56.01;96607.09;5034995;28;20315;-58
2023/06/06 08:04:08;;;;;;;5.35;4.85;;;;;;;25.02;58.31;96613.66;5034871;28;20694;-58
2023/06/06 08:06:37;;;;;;;5.88;5.38;;;;;;;24.72;54.48;96601.03;5036244;28;20218;-58
2023/06/06 08:09:06;;;;;;;6.10;5.50;;;;;;;24.93;54.91;96598.84;5044001;28;20208;-58
2023/06/06 08:11:32;;;;;;;5.22;4.75;;;;;;;25.22;56.91;96603.31;5029646;28;20262;-57
2023/06/06 08:14:00;;;;;;;5.68;5.18;;;;;;;25.31;56.14;96601.06;5039053;28;20215;-57
2023/06/06 08:16:26;;;;;;;5.25;4.70;;;;;;;25.29;56.30;96598.59;5034830;28;20223;-57
2023/06/06 08:18:53;;;;;;;6.40;5.20;;;;;;;25.49;54.17;96603.63;5035182;28;20216;-57
2023/06/06 08:21:21;;;;;;;5.70;5.30;;;;;;;25.69;52.95;96602.22;5034771;28;20232;-58
2023/06/06 08:23:48;;;;;;;5.35;4.85;;;;;;;25.67;55.23;96596.22;5035065;28;20600;-57
2023/06/06 08:26:14;;;;;;;5.50;5.00;;;;;;;25.64;54.68;96602.13;5034903;28;20219;-58
2023/06/06 08:28:41;;;;;;;6.13;5.18;;;;;;;25.59;53.31;96610.13;5035116;28;20234;-58
2023/06/06 08:31:09;;;;;;;4.97;4.60;;;;;;;25.83;53.32;96604.66;5034624;28;20287;-58
2023/06/06 08:33:35;;;;;;;5.57;5.07;;;;;;;25.78;53.71;96601.84;5034875;28;20199;-58
2023/06/06 08:36:02;;;;;;;5.97;4.97;;;;;;;25.51;52.75;96602.38;5034612;28;20283;-58
2023/06/06 08:38:28;;;;;;;5.93;5.15;;;;;;;25.82;53.36;96603.03;5034536;28;20651;-58
2023/06/06 08:40:57;;;;;;;5.32;4.85;;;;;;;25.91;52.88;96602.41;5021374;28;20287;-58
2023/06/06 08:43:27;;;;;;;5.82;4.75;;;;;;;25.98;52.70;96602.25;5034605;28;20218;-57
2023/06/06 08:45:57;;;;;;;6.90;5.57;;;;;;;25.58;52.79;96603.06;5034441;28;20218;-57
2023/06/06 08:48:28;;;;;;;6.20;4.88;;;;;;;25.70;54.42;96601.16;5031210;28;20708;-59
2023/06/06 08:50:55;;;;;;;4.97;4.57;;;;;;;25.83;53.54;96601.94;5032650;28;20219;-58
2023/06/06 08:53:21;;;;;;;5.40;4.95;;;;;;;25.66;51.90;96600.00;5034875;28;20284;-58
2023/06/06 08:55:48;;;;;;;5.43;4.93;;;;;;;25.86;54.64;96593.34;5034454;28;20208;-60
2023/06/06 08:58:15;;;;;;;4.60;4.30;;;;;;;26.04;54.70;96590.47;5034779;28;20333;-59
2023/06/06 09:00:41;;;;;;;4.90;4.50;;;;;;;26.07;52.34;96592.69;5034179;28;20238;-58
2023/06/06 09:03:08;;;;;;;4.82;4.53;;;;;;;26.18;52.08;96591.88;5027914;28;20227;-58
2023/06/06 09:05:38;;;;;;;5.50;5.10;;;;;;;26.16;50.47;96596.66;5032689;28;20211;-58
2023/06/06 09:08:04;;;;;;;5.50;5.10;;;;;;;25.87;53.13;96590.38;5034547;28;20207;-57
2023/06/06 09:10:31;;;;;;;4.63;4.22;;;;;;;26.55;53.31;96587.66;5034364;28;20249;-58
2023/06/06 09:12:57;;;;;;;5.10;4.60;;;;;;;26.54;49.25;96586.00;5034038;28;20584;-58
2023/06/06 09:15:25;;;;;;;5.03;4.50;;;;;;;26.27;53.51;96593.09;5033788;28;20250;-58
2023/06/06 09:17:53;;;;;;;5.63;5.22;;;;;;;25.95;51.35;96581.88;5034596;28;20203;-58
2023/06/06 09:20:20;;;;;;;4.97;4.57;;;;;;;26.41;52.70;96586.31;5034078;28;20405;-59
2023/06/06 09:22:48;;;;;;;5.97;4.93;;;;;;;26.33;52.58;96584.00;5034468;28;20228;-58
2023/06/06 09:25:19;;;;;;;5.38;4.70;;;;;;;26.81;51.21;96580.78;5034122;28;20223;-56
2023/06/06 09:27:45;;;;;;;5.72;5.07;;;;;;;26.64;49.83;96575.31;5034000;28;20794;-59
2023/06/06 09:30:22;;;;;;;5.15;4.63;;;;;;;26.73;50.70;96578.47;5033420;28;20556;-58
2023/06/06 09:32:52;;;;;;;5.13;4.57;;;;;;;26.07;50.69;96581.84;5034439;28;20285;-58
2023/06/06 09:35:19;;;;;;;5.10;4.30;;;;;;;26.47;51.90;96585.34;5034020;28;20211;-58
2023/06/06 09:37:47;;;;;;;7.10;4.53;;;;;;;26.46;50.65;96578.28;5033961;28;20211;-58
2023/06/06 09:40:14;;;;;;;13.23;4.85;;;;;;;26.37;49.04;96573.47;5034151;28;20704;-58
2023/06/06 09:42:43;;;;;;;5.07;4.43;;;;;;;26.65;49.71;96560.69;5034269;28;20238;-57
2023/06/06 09:45:14;;;;;;;4.43;4.10;;;;;;;26.78;50.93;96567.69;5033810;28;20207;-59
2023/06/06 09:47:41;;;;;;;3.95;3.63;;;;;;;27.03;50.96;96567.31;5034159;28;20204;-59
2023/06/06 09:50:08;;;;;;;5.90;4.47;;;;;;;26.61;47.87;96570.38;5027890;28;20313;-59
2023/06/06 09:52:34;;;;;;;10.63;4.50;;;;;;;26.90;50.03;96554.06;5034070;28;20223;-58
2023/06/06 09:55:04;;;;;;;4.95;4.57;;;;;;;26.87;48.67;96560.81;5033771;28;20223;-59
2023/06/06 09:57:30;;;;;;;4.30;4.00;;;;;;;26.56;49.41;96554.03;5033530;28;20319;-59
2023/06/06 10:00:01;;;;;;;3.80;3.53;;;;;;;26.64;49.41;96561.75;5033663;28;20211;-58
2023/06/06 10:02:28;;;;;;;6.05;4.28;;;;;;;26.18;48.23;96559.34;5020493;28;20548;-59
2023/06/06 10:04:55;;;;;;;4.20;3.90;;;;;;;26.60;50.25;96557.09;5033493;28;20215;-58
2023/06/06 10:07:22;;;;;;;3.90;3.60;;;;;;;26.64;48.90;96553.63;5021171;28;20220;-58
2023/06/06 10:09:50;;;;;;;4.00;3.70;;;;;;;26.89;49.00;96550.50;5033878;28;20204;-58
2023/06/06 10:12:18;;;;;;;5.15;3.72;;;;;;;27.15;50.14;96549.84;5033664;28;20235;-59
2023/06/06 10:14:45;;;;;;;4.20;3.90;;;;;;;26.71;46.42;96543.41;5036666;28;20211;-59
2023/06/06 10:17:11;;;;;;;3.88;3.58;;;;;;;27.01;47.91;96540.41;5037018;28;20203;-58
2023/06/06 10:19:39;;;;;;;3.47;3.17;;;;;;;26.88;42.41;96554.31;5037337;28;20217;-58
2023/06/06 10:22:06;;;;;;;3.35;3.15;;;;;;;26.62;43.97;96550.34;5037440;28;20243;-59
2023/06/06 10:24:34;;;;;;;3.50;3.30;;;;;;;26.43;41.47;96562.47;5041401;28;20238;-59
2023/06/06 10:27:07;;;;;;;3.28;3.08;;;;;;;26.53;41.48;96565.38;5045164;28;20212;-59
2023/06/06 10:29:42;;;;;;;4.00;3.25;;;;;;;26.98;43.58;96559.06;5041090;28;20199;-57
2023/06/06 10:32:15;;;;;;;3.63;3.33;;;;;;;27.29;42.16;96558.44;5041366;28;20203;-59
2023/06/06 10:34:44;;;;;;;3.40;3.20;;;;;;;27.46;39.89;96555.72;5040027;28;20203;-58
2023/06/06 10:37:15;;;;;;;3.40;3.20;;;;;;;27.50;41.58;96563.13;5038707;28;20211;-59
2023/06/06 10:39:45;;;;;;;3.58;3.38;;;;;;;27.32;37.66;96551.69;5039842;28;20235;-59
2023/06/06 10:42:12;;;;;;;3.30;3.08;;;;;;;27.54;38.94;96552.56;5039218;28;20316;-58
2023/06/06 10:44:56;;;;;;;2.90;2.70;;;;;;;27.77;39.37;96557.78;5026708;28;20204;-59
2023/06/06 10:47:27;;;;;;;3.65;3.35;;;;;;;27.73;37.49;96553.09;5040004;28;20249;-58
2023/06/06 10:50:22;;;;;;;3.22;3.03;;;;;;;27.74;35.52;96558.25;5037095;28;20196;-58
2023/06/06 10:52:50;;;;;;;3.58;3.20;;;;;;;27.39;36.35;96550.44;5025320;28;20204;-59
2023/06/06 10:55:17;;;;;;;3.65;3.35;;;;;;;27.82;37.35;96554.28;5037573;28;20207;-58
2023/06/06 10:57:52;;;;;;;3.65;2.92;;;;;;;27.65;36.98;96544.31;5037437;28;20212;-58
2023/06/06 11:00:22;;;;;;;3.88;3.00;;;;;;;27.82;36.11;96543.41;5036803;28;20210;-59
2023/06/06 11:02:48;;;;;;;3.58;3.25;;;;;;;28.02;39.97;96543.66;5037907;28;20226;-58
2023/06/06 11:05:15;;;;;;;3.03;2.83;;;;;;;27.86;35.23;96544.53;5038040;28;20219;-60
2023/06/06 11:07:41;;;;;;;6.07;3.35;;;;;;;27.62;34.01;96547.53;5038204;28;20213;-58
2023/06/06 11:10:08;;;;;;;3.50;3.20;;;;;;;27.16;33.10;96545.25;5037712;28;20211;-58
2023/06/06 11:12:35;;;;;;;19.73;8.88;;;;;;;27.30;34.48;96541.09;5037237;28;20250;-58
2023/06/06 11:15:04;;;;;;;7.45;4.45;;;;;;;27.48;33.38;96540.81;5036607;28;20218;-60
2023/06/06 11:17:44;;;;;;;3.53;3.22;;;;;;;27.36;32.96;96539.25;5037961;28;20208;-59
2023/06/06 11:20:19;;;;;;;4.82;3.78;;;;;;;27.13;33.32;96543.84;5038250;28;20205;-59
2023/06/06 11:22:51;;;;;;;3.30;3.08;;;;;;;27.33;33.27;96527.00;5038251;28;20280;-59
2023/06/06 11:25:23;;;;;;;4.30;3.60;;;;;;;27.85;33.74;96532.00;5023179;28;20200;-60
2023/06/06 11:27:50;;;;;;;4.43;3.60;;;;;;;27.38;33.93;96537.94;5037071;28;20671;-58
2023/06/06 11:30:16;;;;;;;5.03;3.30;;;;;;;27.01;35.02;96536.84;5036529;28;20215;-59
2023/06/06 11:32:47;;;;;;;3.65;3.38;;;;;;;27.52;35.96;96533.81;5036215;28;20655;-59